Time;durP1;ratioP1;P1;durP2;ratioP2;P2;SDS_P1;SDS_P2;PMS_P1;PMS_P2;Temp;Humidity;BMP_temperature;BMP_pressure;BME280_temperature;BME280_humidity;BME280_pressure;Samples;Min_cycle;Max_cycle;Signal;HPM_P1;HPM_P2
2023/01/13 00:00:49;;;;;;;1.67;1.57;;;9.10;1.00;;;;;;5086700;28;20513;-85
2023/01/13 00:03:17;;;;;;;2.80;1.43;;;9.50;1.00;;;;;;5078669;28;20937;-85
2023/01/13 00:05:44;;;;;;;1.90;1.30;;;9.20;1.00;;;;;;5082319;28;20531;-85
2023/01/13 00:08:11;;;;;;;1.60;1.50;;;9.20;1.00;;;;;;5091024;28;20461;-85
2023/01/13 00:10:38;;;;;;;1.47;1.37;;;9.20;1.00;;;;;;5091395;28;20479;-85
2023/01/13 00:13:05;;;;;;;1.70;1.60;;;9.20;1.00;;;;;;5091283;28;20539;-85
2023/01/13 00:15:32;;;;;;;1.60;1.50;;;9.10;1.00;;;;;;5093143;28;20459;-85
2023/01/13 00:17:59;;;;;;;1.43;1.33;;;9.20;1.00;;;;;;5096093;28;20536;-84
2023/01/13 00:20:27;;;;;;;1.60;1.50;;;9.20;1.00;;;;;;5097177;28;20427;-85
2023/01/13 00:22:55;;;;;;;2.47;2.20;;;9.20;1.00;;;;;;5087966;28;20444;-85
2023/01/13 00:25:22;;;;;;;1.60;1.50;;;8.90;1.00;;;;;;5077785;28;20528;-85
2023/01/13 00:27:49;;;;;;;1.20;1.10;;;9.30;1.00;;;;;;5077665;28;20445;-85
2023/01/13 00:30:16;;;;;;;1.47;1.37;;;9.20;1.00;;;;;;5077163;28;20468;-85
2023/01/13 00:32:43;;;;;;;1.30;1.20;;;9.30;1.00;;;;;;5077194;28;20485;-86
2023/01/13 00:35:10;;;;;;;1.60;1.50;;;9.20;1.00;;;;;;5076634;28;20481;-85
2023/01/13 00:37:39;;;;;;;2.10;1.20;;;9.20;1.00;;;;;;5078224;28;20499;-84
2023/01/13 00:40:08;;;;;;;1.47;1.37;;;9.30;1.00;;;;;;5078556;28;20538;-85
2023/01/13 00:45:20;;;;;;;1.83;1.73;;;9.20;1.00;;;;;;5078444;28;20949;-85
2023/01/13 00:47:47;;;;;;;1.50;1.40;;;9.20;1.00;;;;;;5079553;28;20555;-85
2023/01/13 00:50:14;;;;;;;1.10;1.10;;;9.20;1.00;;;;;;5081781;28;20441;-85
2023/01/13 00:52:42;;;;;;;2.07;1.47;;;9.20;1.00;;;;;;5081642;28;20480;-84
2023/01/13 00:55:09;;;;;;;1.50;1.40;;;;;;;;;;5082259;28;20507;-85
2023/01/13 00:57:36;;;;;;;1.43;1.33;;;9.30;1.00;;;;;;5081160;28;20508;-85
2023/01/13 01:00:03;;;;;;;1.67;1.57;;;9.20;1.00;;;;;;5081240;28;20508;-85
2023/01/13 01:02:30;;;;;;;1.40;1.30;;;9.30;1.00;;;;;;5081224;28;20446;-85
2023/01/13 01:04:58;;;;;;;1.00;1.00;;;9.30;1.00;;;;;;5081371;28;20976;-85
2023/01/13 01:07:25;;;;;;;1.40;1.30;;;9.30;1.00;;;;;;5080464;28;20988;-85
2023/01/13 01:09:53;;;;;;;1.30;1.20;;;9.30;1.00;;;;;;5081078;28;20440;-85
2023/01/13 01:12:20;;;;;;;1.70;1.30;;;9.40;1.00;;;;;;5084988;28;20467;-84
2023/01/13 01:14:47;;;;;;;1.40;1.00;;;9.30;1.00;;;;;;5088434;28;20928;-85
2023/01/13 01:17:14;;;;;;;1.30;1.20;;;9.30;1.00;;;;;;5087514;28;20445;-85
2023/01/13 01:19:41;;;;;;;1.63;1.53;;;9.30;1.00;;;;;;5084639;28;20453;-85
2023/01/13 01:22:07;;;;;;;2.50;1.60;;;9.30;1.00;;;;;;5082871;28;20481;-84
2023/01/13 01:24:34;;;;;;;1.80;1.70;;;9.30;1.00;;;;;;5084143;28;20508;-84
2023/01/13 01:27:02;;;;;;;1.77;1.60;;;10.00;1.00;;;;;;5084575;28;20442;-84
2023/01/13 01:29:29;;;;;;;1.70;1.60;;;9.30;1.00;;;;;;5081932;28;20516;-84
2023/01/13 01:31:57;;;;;;;1.30;1.20;;;9.50;1.00;;;;;;5080026;28;20480;-84
2023/01/13 01:34:24;;;;;;;1.90;1.30;;;9.40;99.90;;;;;;5078897;28;20449;-85
2023/01/13 01:36:51;;;;;;;1.40;1.30;;;9.40;99.90;;;;;;5078797;28;20467;-85
2023/01/13 01:39:18;;;;;;;1.53;1.17;;;9.30;99.90;;;;;;5079270;28;20536;-85
2023/01/13 01:43:57;;;;;;;1.90;1.20;;;9.30;99.90;;;;;;5080162;28;20451;-85
2023/01/13 01:44:57;;;;;;;1.40;1.30;;;9.40;99.90;;;;;;5084442;28;20447;-85
2023/01/13 01:47:25;;;;;;;1.53;1.43;;;9.40;99.90;;;;;;5079247;28;20470;-84
2023/01/13 01:49:53;;;;;;;1.50;1.40;;;9.40;99.90;;;;;;5079583;28;20454;-85
2023/01/13 01:52:24;;;;;;;0.93;0.90;;;9.50;99.90;;;;;;5079609;28;20571;-85
2023/01/13 01:54:56;;;;;;;1.30;1.20;;;9.50;99.90;;;;;;5080811;28;20421;-85
2023/01/13 01:57:27;;;;;;;2.13;1.60;;;9.50;99.90;;;;;;5080888;28;20458;-85
2023/01/13 01:59:54;;;;;;;0.90;0.90;;;9.50;99.90;;;;;;5082551;28;20407;-85
2023/01/13 02:02:22;;;;;;;2.07;1.10;;;9.50;99.90;;;;;;5083058;28;20450;-85
2023/01/13 02:04:52;;;;;;;1.03;0.90;;;9.50;99.90;;;;;;5084126;28;20475;-85
2023/01/13 02:07:23;;;;;;;1.10;1.10;;;9.50;99.90;;;;;;5082535;28;20465;-85
2023/01/13 02:09:50;;;;;;;0.80;0.80;;;9.50;99.90;;;;;;5082727;28;20437;-85
2023/01/13 02:12:32;;;;;;;1.00;1.00;;;9.50;99.90;;;;;;5081563;28;20484;-85
2023/01/13 02:15:03;;;;;;;1.00;1.00;;;9.50;99.90;;;;;;5087511;28;20482;-84
2023/01/13 02:17:46;;;;;;;2.43;1.43;;;9.50;99.90;;;;;;5083319;28;20476;-85
2023/01/13 02:20:38;;;;;;;1.60;1.33;;;9.50;99.90;;;;;;5082462;28;20439;-85
2023/01/13 02:27:02;;;;;;;2.00;1.33;;;9.50;99.90;;;;;;5100595;28;20455;-84
2023/01/13 02:32:46;;;;;;;1.50;1.07;;;9.50;99.90;;;;;;5096605;28;20531;-85
2023/01/13 02:35:20;;;;;;;1.07;0.97;;;9.30;99.90;;;;;;5088787;28;20425;-85
2023/01/13 02:37:47;;;;;;;0.90;0.90;;;9.60;99.90;;;;;;5082853;28;20522;-85
2023/01/13 02:40:19;;;;;;;1.03;1.00;;;9.40;99.90;;;;;;5082637;28;20444;-85
2023/01/13 02:45:41;;;;;;;1.30;1.20;;;9.40;99.90;;;;;;5080511;28;20404;-85
2023/01/13 02:48:10;;;;;;;1.00;0.87;;;9.40;99.90;;;;;;5080269;28;20473;-85
2023/01/13 02:50:41;;;;;;;1.20;1.10;;;9.40;99.90;;;;;;5081431;28;20469;-84
2023/01/13 02:53:13;;;;;;;0.90;0.90;;;9.40;99.90;;;;;;5080686;28;20499;-84
2023/01/13 02:55:45;;;;;;;0.63;0.63;;;9.40;99.90;;;;;;5087163;28;20519;-84
2023/01/13 02:58:16;;;;;;;1.53;0.90;;;9.40;99.90;;;;;;5095253;28;20538;-84
2023/01/13 03:00:45;;;;;;;3.53;1.00;;;9.50;99.90;;;;;;5096982;28;20420;-84
2023/01/13 03:03:12;;;;;;;1.00;0.90;;;9.10;99.90;;;;;;5095830;28;20453;-84
2023/01/13 03:05:42;;;;;;;2.63;1.07;;;9.40;99.90;;;;;;5096235;28;20475;-84
2023/01/13 03:08:22;;;;;;;1.10;0.90;;;9.40;99.90;;;;;;5095793;28;20516;-84
2023/01/13 03:11:01;;;;;;;0.90;0.90;;;9.40;99.90;;;;;;5096158;28;20445;-84
2023/01/13 03:13:51;;;;;;;2.23;1.00;;;9.40;99.90;;;;;;5091754;28;20572;-84
2023/01/13 03:19:13;;;;;;;1.53;0.90;;;9.50;99.90;;;;;;5108536;28;20588;-85
2023/01/13 03:21:48;;;;;;;1.43;1.13;;;9.40;99.90;;;;;;5099129;28;20561;-85
2023/01/13 03:24:19;;;;;;;1.10;0.80;;;9.40;99.90;;;;;;5099353;28;20402;-85
2023/01/13 03:26:48;;;;;;;1.37;1.27;;;9.40;99.90;;;;;;5101842;28;20523;-85
2023/01/13 03:29:22;;;;;;;1.27;1.20;;;9.40;99.90;;;;;;5114561;28;20419;-85
2023/01/13 03:31:57;;;;;;;1.00;1.00;;;9.30;99.90;;;;;;5114944;28;20422;-85
2023/01/13 03:34:31;;;;;;;2.93;1.20;;;9.40;99.90;;;;;;5102543;28;20448;-85
2023/01/13 03:37:03;;;;;;;0.83;0.83;;;9.70;99.90;;;;;;5098819;28;20457;-85
2023/01/13 03:39:34;;;;;;;1.00;0.90;;;9.30;99.90;;;;;;5097675;28;20861;-85
2023/01/13 03:42:05;;;;;;;1.20;1.10;;;9.50;99.90;;;;;;5097638;28;20432;-85
2023/01/13 03:44:38;;;;;;;0.90;0.90;;;9.40;99.90;;;;;;5099164;28;20430;-86
2023/01/13 03:47:12;;;;;;;0.90;0.90;;;9.40;99.90;;;;;;5099605;28;20464;-86
2023/01/13 03:49:46;;;;;;;3.53;1.47;;;9.40;99.90;;;;;;5098449;28;20541;-86
2023/01/13 03:52:18;;;;;;;1.47;1.37;;;9.30;99.90;;;;;;5100039;28;20434;-86
2023/01/13 03:54:50;;;;;;;1.27;1.17;;;9.30;99.90;;;;;;5098316;28;20443;-86
2023/01/13 03:57:21;;;;;;;1.00;1.00;;;9.30;99.90;;;;;;5098148;28;20491;-86
2023/01/13 03:59:54;;;;;;;2.30;1.10;;;9.30;99.90;;;;;;5101524;28;20380;-86
2023/01/13 04:02:29;;;;;;;1.10;0.93;;;9.30;99.90;;;;;;5105651;28;20396;-84
2023/01/13 04:05:02;;;;;;;1.07;0.97;;;9.30;99.90;;;;;;5104676;28;20428;-87
2023/01/13 04:07:37;;;;;;;1.00;0.90;;;9.30;99.90;;;;;;5099637;28;20464;-85
2023/01/13 04:10:07;;;;;;;1.60;1.30;;;9.30;99.90;;;;;;5099447;28;20862;-85
2023/01/13 04:15:27;;;;;;;0.90;0.90;;;9.30;99.90;;;;;;5096969;28;20446;-86
2023/01/13 04:17:55;;;;;;;1.23;1.13;;;9.30;99.90;;;;;;5096654;28;20484;-86
2023/01/13 04:20:24;;;;;;;1.13;1.03;;;9.30;99.90;;;;;;5097790;28;20448;-85
2023/01/13 04:22:50;;;;;;;1.40;1.30;;;9.40;99.90;;;;;;5097204;28;21009;-86
2023/01/13 04:25:17;;;;;;;1.10;1.10;;;9.40;99.90;;;;;;5096259;28;20427;-85
2023/01/13 04:27:44;;;;;;;1.10;1.00;;;9.40;99.90;;;;;;5096354;28;20524;-84
2023/01/13 04:30:12;;;;;;;1.20;1.10;;;9.40;96.90;;;;;;5085562;28;20448;-85
2023/01/13 04:32:39;;;;;;;1.20;1.10;;;9.40;95.80;;;;;;5082254;28;20449;-85
2023/01/13 04:35:07;;;;;;;0.70;0.70;;;9.40;95.10;;;;;;5080510;28;20531;-84
2023/01/13 04:37:35;;;;;;;0.80;0.80;;;9.40;91.70;;;;;;5081935;28;20484;-85
2023/01/13 04:40:02;;;;;;;1.20;1.10;;;9.30;91.10;;;;;;5081268;28;20498;-84
2023/01/13 04:42:29;;;;;;;1.70;1.17;;;9.30;98.80;;;;;;5081649;28;20448;-85
2023/01/13 04:44:55;;;;;;;0.97;0.90;;;9.30;99.60;;;;;;5081954;28;20452;-84
2023/01/13 04:47:22;;;;;;;0.80;0.80;;;9.30;99.90;;;;;;5083256;28;20826;-86
2023/01/13 04:49:49;;;;;;;0.90;0.90;;;9.30;95.50;;;;;;5088848;28;20517;-83
2023/01/13 04:52:16;;;;;;;0.90;0.90;;;9.30;79.50;;;;;;5099432;28;20429;-83
2023/01/13 04:54:44;;;;;;;5.37;1.53;;;9.20;92.60;;;;;;5099336;28;20494;-87
2023/01/13 04:57:11;;;;;;;1.30;0.70;;;9.20;83.80;;;;;;5084507;28;20548;-84
2023/01/13 04:59:38;;;;;;;1.00;0.90;;;9.30;85.70;;;;;;5082916;28;20457;-84
2023/01/13 05:02:07;;;;;;;4.83;1.30;;;9.20;70.20;;;;;;5083129;28;20918;-84
2023/01/13 05:04:34;;;;;;;0.90;0.80;;;9.20;87.60;;;;;;5082234;28;20527;-86
2023/01/13 05:07:01;;;;;;;1.10;1.10;;;9.30;91.60;;;;;;5083641;28;20521;-85
2023/01/13 05:09:28;;;;;;;1.30;1.10;;;9.30;94.00;;;;;;5083870;28;20479;-85
2023/01/13 05:17:27;;;;;;;1.20;1.20;;;9.40;64.70;;;;;;5082671;28;20466;-85
2023/01/13 05:19:54;;;;;;;1.33;0.90;;;9.40;51.00;;;;;;5082263;28;20919;-85
2023/01/13 05:25:23;;;;;;;2.97;1.23;;;9.20;99.90;;;;;;5083248;28;20404;-85
2023/01/13 05:27:53;;;;;;;1.20;1.10;;;9.40;99.90;;;;;;5082363;28;20519;-86
2023/01/13 05:30:21;;;;;;;1.07;0.97;;;9.40;99.90;;;;;;5083424;28;20455;-85
2023/01/13 05:32:48;;;;;;;0.90;0.90;;;9.50;99.90;;;;;;5082724;28;20536;-86
2023/01/13 05:35:16;;;;;;;2.00;1.20;;;9.70;99.90;;;;;;5082282;28;20441;-85
2023/01/13 05:37:43;;;;;;;1.27;1.13;;;9.30;99.90;;;;;;5082030;28;20488;-86
2023/01/13 05:43:20;;;;;;;1.00;1.00;;;9.40;99.90;;;;;;5081961;28;20764;-87
2023/01/13 05:45:48;;;;;;;1.37;0.90;;;9.40;99.90;;;;;;5083151;28;20720;-85
2023/01/13 05:48:15;;;;;;;1.23;1.13;;;9.20;99.90;;;;;;5082888;28;20469;-85
2023/01/13 05:50:43;;;;;;;1.10;1.00;;;9.50;99.90;;;;;;5082192;28;20447;-85
2023/01/13 05:53:10;;;;;;;1.30;1.10;;;9.50;99.90;;;;;;5082097;28;20492;-85
2023/01/13 05:55:39;;;;;;;1.53;1.20;;;9.60;99.90;;;;;;5081604;28;20419;-87
2023/01/13 05:58:08;;;;;;;0.90;0.90;;;9.60;99.10;;;;;;5081946;28;20520;-86
2023/01/13 06:00:35;;;;;;;0.83;0.80;;;9.60;56.20;;;;;;5081665;28;20450;-86
2023/01/13 06:03:02;;;;;;;1.23;1.10;;;9.60;38.90;;;;;;5082158;28;21016;-85
2023/01/13 06:05:29;;;;;;;1.33;1.23;;;9.70;22.60;;;;;;5082116;28;20444;-85
2023/01/13 06:08:02;;;;;;;1.23;1.13;;;9.60;4.80;;;;;;5081618;28;20471;-86
2023/01/13 06:10:29;;;;;;;1.47;1.00;;;9.70;1.00;;;;;;5082198;28;20407;-85
2023/01/13 06:12:56;;;;;;;1.20;1.10;;;9.70;1.00;;;;;;5094257;28;20455;-85
2023/01/13 06:15:25;;;;;;;1.73;1.63;;;9.70;1.00;;;;;;5095039;28;20507;-85
2023/01/13 06:17:52;;;;;;;1.13;1.03;;;9.70;1.00;;;;;;5088654;28;20498;-84
2023/01/13 06:20:20;;;;;;;1.50;1.10;;;9.70;1.00;;;;;;5087708;28;20435;-86
2023/01/13 06:22:49;;;;;;;1.00;1.00;;;9.70;1.00;;;;;;5086503;28;20985;-86
2023/01/13 06:25:23;;;;;;;1.23;1.13;;;9.70;1.00;;;;;;5087711;28;20488;-85
2023/01/13 06:27:50;;;;;;;1.53;1.43;;;9.70;1.00;;;;;;5083389;28;20457;-86
2023/01/13 06:30:17;;;;;;;2.27;1.47;;;9.70;1.00;;;;;;5082010;28;20942;-86
2023/01/13 06:32:49;;;;;;;4.33;0.90;;;9.70;1.00;;;;;;5082286;28;20530;-86
2023/01/13 06:35:21;;;;;;;1.23;1.07;;;9.70;1.00;;;;;;5092608;28;20495;-86
2023/01/13 06:37:50;;;;;;;1.00;0.80;;;9.70;1.00;;;;;;5097103;28;20553;-85
2023/01/13 06:40:17;;;;;;;2.07;1.60;;;9.60;1.00;;;;;;5094512;28;20527;-86
2023/01/13 06:45:31;;;;;;;0.97;0.80;;;9.70;1.00;;;;;;5082324;28;20507;-85
2023/01/13 06:47:59;;;;;;;2.73;1.87;;;9.70;1.00;;;;;;5089392;28;20464;-85
2023/01/13 06:50:27;;;;;;;2.60;1.07;;;9.70;1.00;;;;;;5096827;28;20510;-85
2023/01/13 06:52:53;;;;;;;1.97;1.00;;;9.70;1.00;;;;;;5096771;28;20445;-83
2023/01/13 06:55:20;;;;;;;1.37;0.90;;;9.70;4.80;;;;;;5092540;28;20459;-86
2023/01/13 06:57:52;;;;;;;1.30;1.10;;;9.70;36.50;;;;;;5081931;28;20484;-85
2023/01/13 07:00:19;;;;;;;1.27;1.10;;;9.60;93.30;;;;;;5082202;28;20465;-85
2023/01/13 07:02:46;;;;;;;2.33;1.10;;;9.60;99.90;;;;;;5083240;28;20822;-84
2023/01/13 07:05:16;;;;;;;1.00;0.90;;;9.50;99.90;;;;;;5083795;28;20459;-85
2023/01/13 07:07:42;;;;;;;1.40;1.30;;;9.60;99.90;;;;;;5081504;28;20475;-85
2023/01/13 07:10:12;;;;;;;1.23;1.00;;;9.50;99.90;;;;;;5084487;28;20543;-87
2023/01/13 07:15:21;;;;;;;2.90;2.30;;;9.50;83.00;;;;;;5083598;28;20865;-85
2023/01/13 07:17:47;;;;;;;1.20;1.10;;;9.60;48.80;;;;;;5083038;28;20473;-84
2023/01/13 07:20:16;;;;;;;3.23;1.43;;;9.60;1.00;;;;;;5082032;28;20440;-86
2023/01/13 07:22:43;;;;;;;1.10;1.00;;;9.60;1.00;;;;;;5081755;28;20463;-85
2023/01/13 07:25:11;;;;;;;6.77;1.03;;;9.70;1.00;;;;;;5088043;28;20456;-85
2023/01/13 07:27:41;;;;;;;1.37;1.17;;;9.90;1.00;;;;;;5097603;28;20455;-85
2023/01/13 07:30:09;;;;;;;1.60;1.50;;;9.80;1.00;;;;;;5097612;28;20429;-85
2023/01/13 07:32:36;;;;;;;4.57;1.47;;;9.70;1.00;;;;;;5091647;28;20445;-86
2023/01/13 07:35:04;;;;;;;21.33;12.13;;;9.70;1.00;;;;;;5081960;28;20541;-85
2023/01/13 07:37:35;;;;;;;6.20;2.40;;;9.70;1.00;;;;;;5079345;28;20563;-86
2023/01/13 07:40:02;;;;;;;1.70;1.50;;;9.60;1.00;;;;;;5080270;28;20475;-86
2023/01/13 07:45:27;;;;;;;2.77;1.60;;;9.60;1.00;;;;;;5036586;28;20419;-85
2023/01/13 07:47:54;;;;;;;1.93;0.97;;;9.60;1.00;;;;;;5034786;28;20473;-84
2023/01/13 07:50:22;;;;;;;2.37;1.43;;;10.00;1.00;;;;;;5054407;28;20456;-83
2023/01/13 07:52:51;;;;;;;1.53;1.43;;;9.60;1.00;;;;;;5078371;28;20458;-85
2023/01/13 07:55:19;;;;;;;2.50;1.27;;;9.60;1.00;;;;;;5080603;28;20418;-86
2023/01/13 07:57:47;;;;;;;2.20;1.30;;;9.60;1.00;;;;;;5080088;28;20460;-86
2023/01/13 08:00:15;;;;;;;1.40;0.90;;;9.60;99.90;;;;;;5081149;28;20553;-86
2023/01/13 08:02:42;;;;;;;10.03;8.60;;;9.60;99.90;;;;;;5082148;28;20471;-86
2023/01/13 08:05:09;;;;;;;2.53;2.33;;;9.60;99.90;;;;;;5086235;28;20535;-85
2023/01/13 08:07:36;;;;;;;1.50;1.40;;;9.40;1.00;;;;;;5086503;28;20499;-86
2023/01/13 08:10:05;;;;;;;3.43;1.20;;;9.50;99.90;;;;;;5085974;28;20448;-87
2023/01/13 08:15:17;;;;;;;1.77;1.23;;;9.60;99.90;;;;;;5086547;28;20409;-85
2023/01/13 08:17:44;;;;;;;1.17;1.07;;;9.40;99.90;;;;;;5086962;28;20487;-88
2023/01/13 08:20:11;;;;;;;1.53;1.17;;;9.60;99.90;;;;;;5084928;28;20468;-85
2023/01/13 08:22:38;;;;;;;1.20;1.13;;;9.60;99.90;;;;;;5084540;28;20995;-86
2023/01/13 08:25:07;;;;;;;1.40;1.17;;;9.60;99.90;;;;;;5096747;28;20508;-86
2023/01/13 08:27:34;;;;;;;1.60;1.50;;;9.50;99.90;;;;;;5083171;28;20488;-84
2023/01/13 08:30:01;;;;;;;2.23;0.93;;;9.60;99.90;;;;;;5083396;28;20818;-83
2023/01/13 08:32:29;;;;;;;1.00;1.00;;;9.50;99.90;;;;;;5087011;28;20512;-86
2023/01/13 08:34:56;;;;;;;1.50;1.40;;;9.50;99.90;;;;;;5084225;28;20474;-86
2023/01/13 08:37:23;;;;;;;1.10;1.10;;;9.50;99.90;;;;;;5083900;28;20487;-85
2023/01/13 08:39:49;;;;;;;1.43;1.33;;;9.40;1.00;;;;;;5083446;28;20508;-85
2023/01/13 08:42:18;;;;;;;1.27;1.10;;;9.50;1.00;;;;;;5082898;28;20451;-84
2023/01/13 08:44:44;;;;;;;1.13;1.00;;;9.80;1.00;;;;;;5083340;28;20518;-88
2023/01/13 08:47:16;;;;;;;5.50;1.33;;;9.50;1.00;;;;;;5082994;28;20502;-88
2023/01/13 08:49:43;;;;;;;1.80;1.00;;;;;;;;;;5085797;28;20965;-88
2023/01/13 08:52:10;;;;;;;1.43;1.33;;;9.50;1.00;;;;;;5087559;28;20447;-88
2023/01/13 08:54:38;;;;;;;2.37;1.20;;;10.00;1.00;;;;;;5086717;28;20441;-88
2023/01/13 08:57:05;;;;;;;6.23;1.77;;;9.50;1.00;;;;;;5087875;28;20471;-88
2023/01/13 08:59:34;;;;;;;2.60;1.40;;;9.50;1.00;;;;;;5088536;28;20536;-89
2023/01/13 09:02:02;;;;;;;1.30;1.20;;;9.50;1.00;;;;;;5086492;28;20787;-88
2023/01/13 09:04:29;;;;;;;1.47;1.37;;;9.50;1.00;;;;;;5086971;28;20547;-88
2023/01/13 09:06:56;;;;;;;2.53;1.97;;;9.50;1.00;;;;;;5086004;28;20479;-88
2023/01/13 09:09:25;;;;;;;1.87;1.37;;;9.50;1.00;;;;;;5086527;28;20445;-86
2023/01/13 09:14:39;;;;;;;3.70;3.40;;;9.20;1.00;;;;;;5089188;28;20383;-88
2023/01/13 09:21:22;;;;;;;2.10;1.73;;;9.40;1.00;;;;;;5016585;28;20553;-90
2023/01/13 09:24:33;;;;;;;2.00;1.10;;;9.50;1.00;;;;;;5015615;28;20447;-90
2023/01/13 09:27:06;;;;;;;2.60;1.60;;;9.60;1.00;;;;;;5020344;28;20802;-90
2023/01/13 09:29:41;;;;;;;3.47;2.30;;;9.50;1.00;;;;;;5023300;28;20675;-90
2023/01/13 09:32:29;;;;;;;1.70;1.37;;;9.50;1.00;;;;;;5027928;28;20455;-90
2023/01/13 09:45:03;;;;;;;2.97;2.57;;;9.40;1.00;;;;;;5019409;28;20415;-90
2023/01/13 09:48:00;;;;;;;2.60;1.57;;;9.60;1.00;;;;;;5023707;28;20479;-90
2023/01/13 09:50:59;;;;;;;2.00;1.67;;;9.40;1.00;;;;;;5026454;28;20426;-90
2023/01/13 10:03:41;;;;;;;1.70;1.60;;;9.10;1.00;;;;;;5014320;28;20447;-90
2023/01/13 10:09:44;;;;;;;2.40;1.43;;;9.00;1.00;;;;;;5021408;28;20468;-90
2023/01/13 10:18:41;;;;;;;2.33;1.37;;;8.90;1.00;;;;;;5017510;28;20486;-89
2023/01/13 10:27:48;;;;;;;2.23;1.37;;;9.10;1.00;;;;;;5013467;28;20475;-89
2023/01/13 10:33:28;;;;;;;3.60;1.37;;;;;;;;;;5013539;28;20523;-89
2023/01/13 10:35:59;;;;;;;2.00;1.40;;;8.80;99.90;;;;;;5017625;28;20444;-88
2023/01/13 10:38:43;;;;;;;1.27;1.20;;;9.00;99.90;;;;;;5022480;28;20487;-88
2023/01/13 10:41:20;;;;;;;1.80;1.40;;;9.10;99.90;;;;;;5025805;28;20440;-90
2023/01/13 10:44:01;;;;;;;1.40;1.30;;;9.10;99.90;;;;;;5019092;28;20447;-89
2023/01/13 10:46:29;;;;;;;2.90;1.10;;;;;;;;;;5018437;28;20430;-89
2023/01/13 10:49:04;;;;;;;3.23;1.30;;;9.20;99.90;;;;;;5017912;28;20454;-89
2023/01/13 10:51:50;;;;;;;4.80;1.63;;;9.30;99.90;;;;;;5018929;28;20420;-89
2023/01/13 10:57:24;;;;;;;1.50;0.93;;;9.40;28.10;;;;;;5034367;28;20488;-89
2023/01/13 10:59:52;;;;;;;4.87;2.10;;;11.30;15.90;;;;;;5036800;28;20451;-89
2023/01/13 11:02:26;;;;;;;2.37;2.17;;;9.40;1.00;;;;;;5036725;28;20437;-89
2023/01/13 11:05:28;;;;;;;3.90;2.00;;;9.60;1.00;;;;;;5035064;28;20476;-89
2023/01/13 11:07:56;;;;;;;1.33;1.23;;;;;;;;;;5033204;28;20545;-89
2023/01/13 11:10:27;;;;;;;1.40;1.30;;;9.50;1.00;;;;;;5024687;28;20513;-88
2023/01/13 11:13:07;;;;;;;8.00;1.97;;;9.50;1.00;;;;;;5019101;28;20456;-89
2023/01/13 11:15:40;;;;;;;2.50;1.50;;;9.60;1.00;;;;;;5018925;28;20562;-88
2023/01/13 11:18:15;;;;;;;2.20;2.10;;;9.60;1.00;;;;;;5017820;28;20502;-89
2023/01/13 11:20:44;;;;;;;2.10;1.43;;;9.50;99.90;;;;;;5019076;28;20457;-89
2023/01/13 11:23:20;;;;;;;3.60;1.37;;;9.50;1.00;;;;;;5026918;28;20440;-89
2023/01/13 11:25:55;;;;;;;1.90;1.67;;;9.50;99.90;;;;;;5027305;28;20443;-89
2023/01/13 11:28:41;;;;;;;1.93;1.20;;;9.40;99.90;;;;;;5033930;28;20425;-89
2023/01/13 11:31:15;;;;;;;3.10;1.97;;;9.50;99.90;;;;;;5031864;28;20406;-90
2023/01/13 11:33:48;;;;;;;1.60;1.30;;;9.50;99.90;;;;;;5030431;28;20458;-90
2023/01/13 11:36:20;;;;;;;2.30;1.30;;;9.60;99.90;;;;;;5033070;28;20426;-90
2023/01/13 11:38:53;;;;;;;2.67;1.37;;;9.50;99.90;;;;;;5036795;28;20473;-89
2023/01/13 11:41:34;;;;;;;2.13;1.77;;;9.50;99.90;;;;;;5032278;28;20432;-90
2023/01/13 11:44:13;;;;;;;1.47;0.80;;;9.60;99.90;;;;;;5027223;28;20442;-89
2023/01/13 11:46:44;;;;;;;2.00;1.30;;;9.60;99.90;;;;;;5023055;28;20428;-89
2023/01/13 11:49:26;;;;;;;4.30;1.70;;;9.60;99.90;;;;;;5026830;28;20403;-89
2023/01/13 11:52:02;;;;;;;1.93;1.67;;;10.30;99.90;;;;;;5021963;28;20438;-90
2023/01/13 11:55:05;;;;;;;4.33;1.53;;;9.60;99.90;;;;;;5019890;28;20526;-89
2023/01/13 11:58:05;;;;;;;4.53;2.37;;;9.70;1.00;;;;;;5021714;28;20525;-89
2023/01/13 12:00:52;;;;;;;6.40;2.10;;;9.70;1.00;;;;;;5025445;28;20445;-89
2023/01/13 12:03:27;;;;;;;3.40;2.50;;;9.70;1.00;;;;;;5023751;28;20463;-89
2023/01/13 12:06:09;;;;;;;4.90;2.13;;;9.70;1.00;;;;;;5021202;28;20412;-89
2023/01/13 12:08:58;;;;;;;2.17;1.60;;;12.60;1.00;;;;;;5021939;28;20475;-89
2023/01/13 12:11:31;;;;;;;3.27;1.50;;;9.80;1.00;;;;;;5021764;28;20442;-89
2023/01/13 12:14:17;;;;;;;4.87;1.50;;;9.70;1.00;;;;;;5028293;28;20438;-89
2023/01/13 12:16:52;;;;;;;8.43;2.10;;;9.80;1.00;;;;;;5023279;28;20466;-89
2023/01/13 12:19:50;;;;;;;1.57;1.47;;;9.80;1.00;;;;;;5018851;28;20513;-89
2023/01/13 12:22:54;;;;;;;2.00;1.50;;;9.80;1.00;;;;;;5022297;28;20444;-91
2023/01/13 12:25:29;;;;;;;2.43;1.50;;;9.80;1.00;;;;;;5008103;28;20421;-89
2023/01/13 12:28:02;;;;;;;5.53;1.90;;;9.70;1.00;;;;;;5018747;28;20516;-89
2023/01/13 12:30:39;;;;;;;2.13;1.63;;;10.00;1.00;;;;;;5019475;28;20448;-89
2023/01/13 12:33:19;;;;;;;5.17;1.43;;;9.80;1.00;;;;;;5022591;28;20431;-88
2023/01/13 12:35:58;;;;;;;5.73;1.63;;;9.70;1.00;;;;;;5023442;28;20799;-88
2023/01/13 12:38:36;;;;;;;2.80;1.53;;;9.80;99.90;;;;;;5021484;28;20458;-89
2023/01/13 12:44:24;;;;;;;2.60;1.20;;;9.70;99.90;;;;;;4999172;28;20459;-88
2023/01/13 12:46:59;;;;;;;2.67;1.67;;;9.80;99.90;;;;;;5020697;28;20442;-90
2023/01/13 12:49:36;;;;;;;1.27;1.00;;;9.70;7.70;;;;;;5029246;28;20451;-89
2023/01/13 12:52:25;;;;;;;4.00;1.43;;;9.70;1.00;;;;;;5029042;28;20418;-89
2023/01/13 12:57:58;;;;;;;3.80;2.20;;;9.80;1.00;;;;;;5002545;28;20442;-89
2023/01/13 13:00:32;;;;;;;5.23;2.10;;;9.70;1.00;;;;;;5020565;28;20478;-89
2023/01/13 13:03:27;;;;;;;6.13;1.80;;;9.70;1.00;;;;;;5019225;28;20435;-89
2023/01/13 13:06:05;;;;;;;3.40;1.97;;;9.80;1.00;;;;;;5018697;28;20411;-89
2023/01/13 13:08:57;;;;;;;6.13;2.07;;;9.80;1.00;;;;;;5019813;28;20563;-89
2023/01/13 13:15:05;;;;;;;4.03;1.70;;;9.90;99.90;;;;;;5017850;28;20407;-89
2023/01/13 13:17:43;;;;;;;1.73;1.20;;;10.10;1.00;;;;;;5018813;28;20490;-89
2023/01/13 13:20:52;;;;;;;2.93;1.80;;;10.20;1.00;;;;;;5037096;28;20479;-89
2023/01/13 13:23:46;;;;;;;2.53;1.40;;;10.00;1.00;;;;;;5038829;28;20424;-89
2023/01/13 13:26:33;;;;;;;6.33;3.43;;;9.90;1.00;;;;;;5019997;28;20432;-89
2023/01/13 13:29:46;;;;;;;5.20;1.20;;;10.00;99.90;;;;;;5021034;28;20526;-89
2023/01/13 13:32:41;;;;;;;2.70;1.43;;;10.00;99.90;;;;;;5022854;28;20479;-89
2023/01/13 13:35:34;;;;;;;2.10;1.90;;;10.00;99.90;;;;;;5021030;28;20832;-89
2023/01/13 13:46:47;;;;;;;3.87;2.17;;;10.10;1.00;;;;;;5019376;28;20542;-90
2023/01/13 13:49:18;;;;;;;2.50;1.50;;;9.80;1.00;;;;;;5021115;28;20542;-89
2023/01/13 13:51:51;;;;;;;10.10;3.60;;;9.80;99.90;;;;;;5020973;28;20437;-89
2023/01/13 13:54:20;;;;;;;3.27;1.87;;;9.70;1.00;;;;;;5022069;28;20861;-89
2023/01/13 13:56:55;;;;;;;3.93;1.70;;;9.50;1.00;;;;;;5022496;28;20447;-89
2023/01/13 13:59:33;;;;;;;3.93;1.80;;;9.60;1.00;;;;;;5018466;28;20450;-89
2023/01/13 14:02:16;;;;;;;7.80;1.80;;;9.60;99.90;;;;;;5019711;28;20413;-89
2023/01/13 14:04:43;;;;;;;5.00;2.40;;;;;;;;;;5023079;28;20460;-89
2023/01/13 14:07:19;;;;;;;2.50;1.60;;;9.50;99.90;;;;;;5026278;28;20461;-89
2023/01/13 14:09:52;;;;;;;6.70;2.10;;;9.50;99.90;;;;;;5031364;28;20446;-89
2023/01/13 14:12:26;;;;;;;3.63;1.90;;;9.60;99.90;;;;;;5036851;28;20432;-91
2023/01/13 14:14:58;;;;;;;7.47;2.50;;;9.50;99.90;;;;;;5028659;28;20409;-90
2023/01/13 14:17:27;;;;;;;2.63;1.53;;;9.50;99.90;;;;;;5022344;28;20442;-90
2023/01/13 14:20:03;;;;;;;10.50;2.97;;;9.60;99.90;;;;;;5020783;28;21001;-90
2023/01/13 14:22:32;;;;;;;2.90;1.57;;;9.60;99.90;;;;;;5020236;28;20443;-89
2023/01/13 14:25:06;;;;;;;2.80;1.50;;;9.60;99.90;;;;;;5022581;28;20456;-89
2023/01/13 14:27:57;;;;;;;5.67;2.50;;;9.70;99.90;;;;;;5023057;28;20487;-90
2023/01/13 14:30:34;;;;;;;1.90;1.70;;;11.00;99.90;;;;;;5021080;28;20427;-90
2023/01/13 14:33:04;;;;;;;3.63;2.17;;;9.70;99.90;;;;;;5020842;28;20455;-90
2023/01/13 14:35:40;;;;;;;1.90;1.80;;;;;;;;;;5022450;28;20451;-90
2023/01/13 14:38:20;;;;;;;4.27;2.80;;;9.70;96.10;;;;;;5027634;28;20541;-90
2023/01/13 14:40:48;;;;;;;6.67;2.20;;;;;;;;;;5024017;28;20479;-90
2023/01/13 14:43:21;;;;;;;6.00;2.10;;;9.70;99.90;;;;;;5022561;28;20483;-89
2023/01/13 14:45:59;;;;;;;7.60;1.63;;;9.70;57.60;;;;;;5020713;28;20446;-90
2023/01/13 14:48:43;;;;;;;2.50;1.53;;;9.70;53.80;;;;;;5022566;28;20475;-90
2023/01/13 14:51:25;;;;;;;4.33;2.10;;;9.70;99.90;;;;;;5032237;28;20431;-89
2023/01/13 14:54:01;;;;;;;3.53;1.57;;;9.70;15.40;;;;;;5038347;28;20456;-90
2023/01/13 14:56:43;;;;;;;3.90;1.47;;;9.70;13.20;;;;;;5038388;28;20518;-89
2023/01/13 14:59:56;;;;;;;6.97;1.80;;;9.70;74.10;;;;;;5037852;28;20424;-91
2023/01/13 15:06:37;;;;;;;3.73;1.87;;;9.60;99.90;;;;;;4789897;29;20459;-91
2023/01/13 15:09:41;;;;;;;4.07;2.90;;;9.50;99.90;;;;;;4864664;29;20460;-89
2023/01/13 15:12:43;;;;;;;3.70;2.70;;;9.50;99.90;;;;;;4959833;28;21420;-92
2023/01/13 15:18:28;;;;;;;3.70;3.10;;;9.40;99.90;;;;;;5311835;22;20490;-90
2023/01/13 15:21:42;;;;;;;5.27;2.03;;;9.30;99.90;;;;;;5020832;28;20524;-91
2023/01/13 15:24:41;;;;;;;5.40;2.90;;;9.30;99.90;;;;;;5023840;28;20464;-91
2023/01/13 15:27:33;;;;;;;4.80;2.27;;;9.20;99.90;;;;;;5021460;28;20476;-90
2023/01/13 15:32:30;;;;;;;5.93;1.80;;;9.20;99.90;;;;;;5000623;28;20480;-88